sensor_id;sensor_type;location;lat;lon;timestamp;P1;durP1;ratioP1;P2;durP2;ratioP2
32152;SDS011;18656;50.580;11.392;2023-11-19T00:00:08;0.40;;;0.40;;
32152;SDS011;18656;50.580;11.392;2023-11-19T00:02:40;0.50;;;0.47;;
32152;SDS011;18656;50.580;11.392;2023-11-19T00:05:08;0.20;;;0.20;;
32152;SDS011;18656;50.580;11.392;2023-11-19T00:07:35;0.35;;;0.35;;
32152;SDS011;18656;50.580;11.392;2023-11-19T00:10:03;0.40;;;0.40;;
32152;SDS011;18656;50.580;11.392;2023-11-19T00:12:33;0.30;;;0.30;;
32152;SDS011;18656;50.580;11.392;2023-11-19T00:15:00;0.40;;;0.32;;
32152;SDS011;18656;50.580;11.392;2023-11-19T00:17:27;0.30;;;0.30;;
32152;SDS011;18656;50.580;11.392;2023-11-19T00:19:55;0.38;;;0.32;;
32152;SDS011;18656;50.580;11.392;2023-11-19T00:22:22;0.25;;;0.25;;
32152;SDS011;18656;50.580;11.392;2023-11-19T00:24:52;0.30;;;0.30;;
32152;SDS011;18656;50.580;11.392;2023-11-19T00:27:19;0.65;;;0.28;;
32152;SDS011;18656;50.580;11.392;2023-11-19T00:29:46;0.30;;;0.30;;
32152;SDS011;18656;50.580;11.392;2023-11-19T00:32:14;0.10;;;0.10;;
32152;SDS011;18656;50.580;11.392;2023-11-19T00:34:43;0.20;;;0.20;;
32152;SDS011;18656;50.580;11.392;2023-11-19T00:37:10;0.17;;;0.17;;
32152;SDS011;18656;50.580;11.392;2023-11-19T00:39:38;0.43;;;0.25;;
32152;SDS011;18656;50.580;11.392;2023-11-19T00:42:05;1.35;;;0.15;;
32152;SDS011;18656;50.580;11.392;2023-11-19T00:44:32;0.10;;;0.10;;
32152;SDS011;18656;50.580;11.392;2023-11-19T00:47:00;0.10;;;0.10;;
32152;SDS011;18656;50.580;11.392;2023-11-19T00:49:27;0.20;;;0.20;;
32152;SDS011;18656;50.580;11.392;2023-11-19T00:51:54;0.38;;;0.25;;
32152;SDS011;18656;50.580;11.392;2023-11-19T00:54:22;0.25;;;0.10;;
32152;SDS011;18656;50.580;11.392;2023-11-19T00:56:52;0.10;;;0.10;;
32152;SDS011;18656;50.580;11.392;2023-11-19T00:59:19;0.10;;;0.10;;
32152;SDS011;18656;50.580;11.392;2023-11-19T01:01:46;0.10;;;0.10;;
32152;SDS011;18656;50.580;11.392;2023-11-19T01:04:14;0.10;;;0.10;;
32152;SDS011;18656;50.580;11.392;2023-11-19T01:06:42;1.30;;;0.22;;
32152;SDS011;18656;50.580;11.392;2023-11-19T01:09:12;0.20;;;0.15;;
32152;SDS011;18656;50.580;11.392;2023-11-19T01:11:39;1.60;;;0.30;;
32152;SDS011;18656;50.580;11.392;2023-11-19T01:14:06;0.20;;;0.20;;
32152;SDS011;18656;50.580;11.392;2023-11-19T01:16:34;0.20;;;0.20;;
32152;SDS011;18656;50.580;11.392;2023-11-19T01:19:01;0.20;;;0.20;;
32152;SDS011;18656;50.580;11.392;2023-11-19T01:21:43;0.20;;;0.20;;
32152;SDS011;18656;50.580;11.392;2023-11-19T01:24:10;0.10;;;0.10;;
32152;SDS011;18656;50.580;11.392;2023-11-19T01:26:39;1.67;;;0.10;;
32152;SDS011;18656;50.580;11.392;2023-11-19T01:29:12;0.10;;;0.10;;
32152;SDS011;18656;50.580;11.392;2023-11-19T01:31:42;0.35;;;0.35;;
32152;SDS011;18656;50.580;11.392;2023-11-19T01:34:10;0.20;;;0.20;;
32152;SDS011;18656;50.580;11.392;2023-11-19T01:36:38;1.27;;;0.20;;
32152;SDS011;18656;50.580;11.392;2023-11-19T01:39:06;0.45;;;0.28;;
32152;SDS011;18656;50.580;11.392;2023-11-19T01:41:36;0.20;;;0.20;;
32152;SDS011;18656;50.580;11.392;2023-11-19T01:44:08;0.55;;;0.30;;
32152;SDS011;18656;50.580;11.392;2023-11-19T01:46:38;0.55;;;0.20;;
32152;SDS011;18656;50.580;11.392;2023-11-19T01:49:07;0.17;;;0.17;;
32152;SDS011;18656;50.580;11.392;2023-11-19T01:51:35;0.10;;;0.10;;
32152;SDS011;18656;50.580;11.392;2023-11-19T01:54:02;0.10;;;0.10;;
32152;SDS011;18656;50.580;11.392;2023-11-19T01:56:29;0.28;;;0.28;;
32152;SDS011;18656;50.580;11.392;2023-11-19T01:58:57;0.20;;;0.20;;
32152;SDS011;18656;50.580;11.392;2023-11-19T02:01:25;0.10;;;0.10;;
32152;SDS011;18656;50.580;11.392;2023-11-19T02:03:52;0.30;;;0.30;;
32152;SDS011;18656;50.580;11.392;2023-11-19T02:06:20;0.20;;;0.20;;
32152;SDS011;18656;50.580;11.392;2023-11-19T02:08:47;0.10;;;0.10;;
32152;SDS011;18656;50.580;11.392;2023-11-19T02:11:15;0.15;;;0.15;;
32152;SDS011;18656;50.580;11.392;2023-11-19T02:13:42;0.10;;;0.10;;
32152;SDS011;18656;50.580;11.392;2023-11-19T02:16:10;0.40;;;0.20;;
32152;SDS011;18656;50.580;11.392;2023-11-19T02:18:38;0.20;;;0.20;;
32152;SDS011;18656;50.580;11.392;2023-11-19T02:21:05;0.95;;;0.20;;
32152;SDS011;18656;50.580;11.392;2023-11-19T02:23:32;0.20;;;0.10;;
32152;SDS011;18656;50.580;11.392;2023-11-19T02:28:27;1.42;;;0.40;;
32152;SDS011;18656;50.580;11.392;2023-11-19T02:30:54;0.10;;;0.10;;
32152;SDS011;18656;50.580;11.392;2023-11-19T02:33:22;0.20;;;0.20;;
32152;SDS011;18656;50.580;11.392;2023-11-19T02:35:51;0.28;;;0.20;;
32152;SDS011;18656;50.580;11.392;2023-11-19T02:38:18;0.15;;;0.15;;
32152;SDS011;18656;50.580;11.392;2023-11-19T02:40:48;0.10;;;0.10;;
32152;SDS011;18656;50.580;11.392;2023-11-19T02:43:15;1.65;;;0.20;;
32152;SDS011;18656;50.580;11.392;2023-11-19T02:45:42;0.00;;;0.00;;
32152;SDS011;18656;50.580;11.392;2023-11-19T02:48:12;0.10;;;0.10;;
32152;SDS011;18656;50.580;11.392;2023-11-19T02:50:41;0.03;;;0.03;;
32152;SDS011;18656;50.580;11.392;2023-11-19T02:53:08;0.03;;;0.03;;
32152;SDS011;18656;50.580;11.392;2023-11-19T02:55:36;0.10;;;0.10;;
32152;SDS011;18656;50.580;11.392;2023-11-19T02:58:05;0.10;;;0.10;;
32152;SDS011;18656;50.580;11.392;2023-11-19T03:00:39;0.00;;;0.00;;
32152;SDS011;18656;50.580;11.392;2023-11-19T03:03:14;0.10;;;0.10;;
32152;SDS011;18656;50.580;11.392;2023-11-19T03:05:47;0.10;;;0.10;;
32152;SDS011;18656;50.580;11.392;2023-11-19T03:08:17;0.10;;;0.10;;
32152;SDS011;18656;50.580;11.392;2023-11-19T03:10:48;0.10;;;0.10;;
32152;SDS011;18656;50.580;11.392;2023-11-19T03:13:15;1.05;;;0.10;;
32152;SDS011;18656;50.580;11.392;2023-11-19T03:15:45;0.10;;;0.10;;
32152;SDS011;18656;50.580;11.392;2023-11-19T03:18:13;0.20;;;0.10;;
32152;SDS011;18656;50.580;11.392;2023-11-19T03:20:40;0.30;;;0.10;;
32152;SDS011;18656;50.580;11.392;2023-11-19T03:23:07;0.10;;;0.10;;
32152;SDS011;18656;50.580;11.392;2023-11-19T03:25:35;0.10;;;0.10;;
32152;SDS011;18656;50.580;11.392;2023-11-19T03:28:03;0.10;;;0.10;;
32152;SDS011;18656;50.580;11.392;2023-11-19T03:30:31;0.03;;;0.03;;
32152;SDS011;18656;50.580;11.392;2023-11-19T03:33:00;0.20;;;0.10;;
32152;SDS011;18656;50.580;11.392;2023-11-19T03:35:28;0.10;;;0.10;;
32152;SDS011;18656;50.580;11.392;2023-11-19T03:37:55;0.00;;;0.00;;
32152;SDS011;18656;50.580;11.392;2023-11-19T03:40:22;0.03;;;0.03;;
32152;SDS011;18656;50.580;11.392;2023-11-19T03:42:51;0.63;;;0.03;;
32152;SDS011;18656;50.580;11.392;2023-11-19T03:45:18;0.10;;;0.10;;
32152;SDS011;18656;50.580;11.392;2023-11-19T03:47:46;0.10;;;0.10;;
32152;SDS011;18656;50.580;11.392;2023-11-19T03:50:13;0.13;;;0.00;;
32152;SDS011;18656;50.580;11.392;2023-11-19T03:52:42;0.00;;;0.00;;
32152;SDS011;18656;50.580;11.392;2023-11-19T03:55:10;0.10;;;0.00;;
32152;SDS011;18656;50.580;11.392;2023-11-19T03:57:39;0.00;;;0.00;;
32152;SDS011;18656;50.580;11.392;2023-11-19T04:00:06;0.00;;;0.00;;
32152;SDS011;18656;50.580;11.392;2023-11-19T04:02:37;0.10;;;0.10;;
32152;SDS011;18656;50.580;11.392;2023-11-19T04:05:04;1.15;;;0.22;;
32152;SDS011;18656;50.580;11.392;2023-11-19T04:07:32;0.50;;;0.50;;
32152;SDS011;18656;50.580;11.392;2023-11-19T04:10:00;0.28;;;0.28;;
32152;SDS011;18656;50.580;11.392;2023-11-19T04:12:28;0.30;;;0.30;;
32152;SDS011;18656;50.580;11.392;2023-11-19T04:14:55;0.40;;;0.40;;
32152;SDS011;18656;50.580;11.392;2023-11-19T04:17:25;0.30;;;0.30;;
32152;SDS011;18656;50.580;11.392;2023-11-19T04:19:53;0.10;;;0.10;;
32152;SDS011;18656;50.580;11.392;2023-11-19T04:22:20;0.17;;;0.10;;
32152;SDS011;18656;50.580;11.392;2023-11-19T04:24:47;0.10;;;0.10;;
32152;SDS011;18656;50.580;11.392;2023-11-19T04:27:15;0.40;;;0.10;;
32152;SDS011;18656;50.580;11.392;2023-11-19T04:29:42;0.17;;;0.10;;
32152;SDS011;18656;50.580;11.392;2023-11-19T04:32:09;0.00;;;0.00;;
32152;SDS011;18656;50.580;11.392;2023-11-19T04:34:36;0.20;;;0.17;;
32152;SDS011;18656;50.580;11.392;2023-11-19T04:37:04;0.28;;;0.28;;
32152;SDS011;18656;50.580;11.392;2023-11-19T04:39:34;0.95;;;0.30;;
32152;SDS011;18656;50.580;11.392;2023-11-19T04:42:02;0.10;;;0.10;;
32152;SDS011;18656;50.580;11.392;2023-11-19T04:44:30;0.10;;;0.10;;
32152;SDS011;18656;50.580;11.392;2023-11-19T04:46:58;0.30;;;0.20;;
32152;SDS011;18656;50.580;11.392;2023-11-19T04:49:25;0.20;;;0.13;;
32152;SDS011;18656;50.580;11.392;2023-11-19T04:51:54;0.10;;;0.10;;
32152;SDS011;18656;50.580;11.392;2023-11-19T04:54:21;0.32;;;0.32;;
32152;SDS011;18656;50.580;11.392;2023-11-19T04:56:49;0.20;;;0.20;;
32152;SDS011;18656;50.580;11.392;2023-11-19T04:59:16;0.10;;;0.10;;
32152;SDS011;18656;50.580;11.392;2023-11-19T05:01:46;0.10;;;0.10;;
32152;SDS011;18656;50.580;11.392;2023-11-19T05:04:14;0.10;;;0.10;;
32152;SDS011;18656;50.580;11.392;2023-11-19T05:06:41;0.20;;;0.20;;
32152;SDS011;18656;50.580;11.392;2023-11-19T05:09:09;0.20;;;0.20;;
32152;SDS011;18656;50.580;11.392;2023-11-19T05:11:39;0.20;;;0.20;;
32152;SDS011;18656;50.580;11.392;2023-11-19T05:14:09;0.00;;;0.00;;
32152;SDS011;18656;50.580;11.392;2023-11-19T05:16:39;0.00;;;0.00;;
32152;SDS011;18656;50.580;11.392;2023-11-19T05:19:06;0.10;;;0.10;;
32152;SDS011;18656;50.580;11.392;2023-11-19T05:21:35;0.00;;;0.00;;
32152;SDS011;18656;50.580;11.392;2023-11-19T05:24:02;0.00;;;0.00;;
32152;SDS011;18656;50.580;11.392;2023-11-19T05:26:32;0.10;;;0.10;;
32152;SDS011;18656;50.580;11.392;2023-11-19T05:28:59;0.00;;;0.00;;
32152;SDS011;18656;50.580;11.392;2023-11-19T05:31:27;0.10;;;0.10;;
32152;SDS011;18656;50.580;11.392;2023-11-19T05:33:54;0.30;;;0.10;;
32152;SDS011;18656;50.580;11.392;2023-11-19T05:36:22;0.00;;;0.00;;
32152;SDS011;18656;50.580;11.392;2023-11-19T05:38:49;0.10;;;0.10;;
32152;SDS011;18656;50.580;11.392;2023-11-19T05:41:16;0.00;;;0.00;;
32152;SDS011;18656;50.580;11.392;2023-11-19T05:43:44;0.10;;;0.10;;
32152;SDS011;18656;50.580;11.392;2023-11-19T05:46:11;0.22;;;0.22;;
32152;SDS011;18656;50.580;11.392;2023-11-19T05:48:42;0.10;;;0.10;;
32152;SDS011;18656;50.580;11.392;2023-11-19T05:51:09;0.50;;;0.10;;
32152;SDS011;18656;50.580;11.392;2023-11-19T05:53:37;0.00;;;0.00;;
32152;SDS011;18656;50.580;11.392;2023-11-19T05:56:05;0.10;;;0.10;;
32152;SDS011;18656;50.580;11.392;2023-11-19T05:58:35;0.10;;;0.10;;
32152;SDS011;18656;50.580;11.392;2023-11-19T06:01:04;0.10;;;0.10;;
32152;SDS011;18656;50.580;11.392;2023-11-19T06:03:34;0.10;;;0.10;;
32152;SDS011;18656;50.580;11.392;2023-11-19T06:06:03;0.10;;;0.10;;
32152;SDS011;18656;50.580;11.392;2023-11-19T06:08:31;0.10;;;0.10;;
32152;SDS011;18656;50.580;11.392;2023-11-19T06:10:58;0.00;;;0.00;;
32152;SDS011;18656;50.580;11.392;2023-11-19T06:13:28;0.00;;;0.00;;
32152;SDS011;18656;50.580;11.392;2023-11-19T06:15:57;0.00;;;0.00;;
32152;SDS011;18656;50.580;11.392;2023-11-19T06:18:25;0.20;;;0.20;;
32152;SDS011;18656;50.580;11.392;2023-11-19T06:20:54;0.00;;;0.00;;
32152;SDS011;18656;50.580;11.392;2023-11-19T06:23:21;0.00;;;0.00;;
32152;SDS011;18656;50.580;11.392;2023-11-19T06:25:48;0.08;;;0.08;;
32152;SDS011;18656;50.580;11.392;2023-11-19T06:28:15;0.20;;;0.10;;
32152;SDS011;18656;50.580;11.392;2023-11-19T06:30:42;0.73;;;0.00;;
32152;SDS011;18656;50.580;11.392;2023-11-19T06:33:13;0.30;;;0.10;;
32152;SDS011;18656;50.580;11.392;2023-11-19T06:35:41;0.80;;;0.28;;
32152;SDS011;18656;50.580;11.392;2023-11-19T06:38:08;0.55;;;0.00;;
32152;SDS011;18656;50.580;11.392;2023-11-19T06:40:35;1.67;;;0.17;;
32152;SDS011;18656;50.580;11.392;2023-11-19T06:43:03;0.00;;;0.00;;
32152;SDS011;18656;50.580;11.392;2023-11-19T06:45:31;0.55;;;0.10;;
32152;SDS011;18656;50.580;11.392;2023-11-19T06:48:00;0.70;;;0.15;;
32152;SDS011;18656;50.580;11.392;2023-11-19T06:50:30;0.10;;;0.03;;
32152;SDS011;18656;50.580;11.392;2023-11-19T06:52:57;0.10;;;0.10;;
32152;SDS011;18656;50.580;11.392;2023-11-19T06:55:26;0.10;;;0.10;;
32152;SDS011;18656;50.580;11.392;2023-11-19T06:57:53;0.10;;;0.10;;
32152;SDS011;18656;50.580;11.392;2023-11-19T07:00:21;0.10;;;0.05;;
32152;SDS011;18656;50.580;11.392;2023-11-19T07:02:48;0.20;;;0.20;;
32152;SDS011;18656;50.580;11.392;2023-11-19T07:05:17;0.20;;;0.15;;
32152;SDS011;18656;50.580;11.392;2023-11-19T07:07:45;0.35;;;0.10;;
32152;SDS011;18656;50.580;11.392;2023-11-19T07:10:13;0.20;;;0.20;;
32152;SDS011;18656;50.580;11.392;2023-11-19T07:12:40;0.20;;;0.20;;
32152;SDS011;18656;50.580;11.392;2023-11-19T07:15:08;1.38;;;0.20;;
32152;SDS011;18656;50.580;11.392;2023-11-19T07:17:35;0.30;;;0.30;;
32152;SDS011;18656;50.580;11.392;2023-11-19T07:20:03;0.03;;;0.03;;
32152;SDS011;18656;50.580;11.392;2023-11-19T07:22:31;0.20;;;0.20;;
32152;SDS011;18656;50.580;11.392;2023-11-19T07:24:58;2.17;;;0.35;;
32152;SDS011;18656;50.580;11.392;2023-11-19T07:27:25;0.22;;;0.20;;
32152;SDS011;18656;50.580;11.392;2023-11-19T07:29:53;0.10;;;0.10;;
32152;SDS011;18656;50.580;11.392;2023-11-19T07:32:21;0.50;;;0.30;;
32152;SDS011;18656;50.580;11.392;2023-11-19T07:34:48;0.47;;;0.30;;
32152;SDS011;18656;50.580;11.392;2023-11-19T07:37:16;0.32;;;0.20;;
32152;SDS011;18656;50.580;11.392;2023-11-19T07:39:43;0.63;;;0.30;;
32152;SDS011;18656;50.580;11.392;2023-11-19T07:42:11;0.75;;;0.30;;
32152;SDS011;18656;50.580;11.392;2023-11-19T07:44:38;1.05;;;0.30;;
32152;SDS011;18656;50.580;11.392;2023-11-19T07:47:05;0.40;;;0.30;;
32152;SDS011;18656;50.580;11.392;2023-11-19T07:49:33;0.30;;;0.22;;
32152;SDS011;18656;50.580;11.392;2023-11-19T07:52:00;0.30;;;0.20;;
32152;SDS011;18656;50.580;11.392;2023-11-19T07:54:29;2.20;;;1.73;;
32152;SDS011;18656;50.580;11.392;2023-11-19T07:56:56;1.67;;;0.60;;
32152;SDS011;18656;50.580;11.392;2023-11-19T07:59:24;0.65;;;0.40;;
32152;SDS011;18656;50.580;11.392;2023-11-19T08:01:51;0.60;;;0.60;;
32152;SDS011;18656;50.580;11.392;2023-11-19T08:04:18;2.03;;;0.20;;
32152;SDS011;18656;50.580;11.392;2023-11-19T08:06:46;0.40;;;0.40;;
32152;SDS011;18656;50.580;11.392;2023-11-19T08:09:13;0.88;;;0.40;;
32152;SDS011;18656;50.580;11.392;2023-11-19T08:11:41;3.47;;;3.13;;
32152;SDS011;18656;50.580;11.392;2023-11-19T08:14:08;7.85;;;6.75;;
32152;SDS011;18656;50.580;11.392;2023-11-19T08:16:36;4.07;;;0.60;;
32152;SDS011;18656;50.580;11.392;2023-11-19T08:19:04;0.60;;;0.60;;
32152;SDS011;18656;50.580;11.392;2023-11-19T08:21:31;0.30;;;0.30;;
32152;SDS011;18656;50.580;11.392;2023-11-19T08:23:58;1.23;;;1.23;;
32152;SDS011;18656;50.580;11.392;2023-11-19T08:26:26;0.60;;;0.50;;
32152;SDS011;18656;50.580;11.392;2023-11-19T08:28:53;0.47;;;0.47;;
32152;SDS011;18656;50.580;11.392;2023-11-19T08:31:20;0.25;;;0.20;;
32152;SDS011;18656;50.580;11.392;2023-11-19T08:33:47;0.77;;;0.70;;
32152;SDS011;18656;50.580;11.392;2023-11-19T08:36:15;0.85;;;0.75;;
32152;SDS011;18656;50.580;11.392;2023-11-19T08:38:45;1.15;;;0.57;;
32152;SDS011;18656;50.580;11.392;2023-11-19T08:41:15;1.98;;;0.70;;
32152;SDS011;18656;50.580;11.392;2023-11-19T08:43:44;0.80;;;0.80;;
32152;SDS011;18656;50.580;11.392;2023-11-19T08:46:11;0.80;;;0.77;;
32152;SDS011;18656;50.580;11.392;2023-11-19T08:48:39;1.67;;;0.70;;
32152;SDS011;18656;50.580;11.392;2023-11-19T08:51:07;0.70;;;0.70;;
32152;SDS011;18656;50.580;11.392;2023-11-19T08:53:34;4.18;;;0.68;;
32152;SDS011;18656;50.580;11.392;2023-11-19T08:56:02;0.93;;;0.70;;
32152;SDS011;18656;50.580;11.392;2023-11-19T08:58:29;0.50;;;0.50;;
32152;SDS011;18656;50.580;11.392;2023-11-19T09:00:57;0.43;;;0.43;;
32152;SDS011;18656;50.580;11.392;2023-11-19T09:03:25;1.00;;;0.70;;
32152;SDS011;18656;50.580;11.392;2023-11-19T09:05:53;0.45;;;0.40;;
32152;SDS011;18656;50.580;11.392;2023-11-19T09:08:20;0.70;;;0.70;;
32152;SDS011;18656;50.580;11.392;2023-11-19T09:10:48;0.50;;;0.30;;
32152;SDS011;18656;50.580;11.392;2023-11-19T09:13:15;3.22;;;1.10;;
32152;SDS011;18656;50.580;11.392;2023-11-19T09:15:42;7.32;;;6.70;;
32152;SDS011;18656;50.580;11.392;2023-11-19T09:18:09;12.52;;;8.55;;
32152;SDS011;18656;50.580;11.392;2023-11-19T09:20:37;11.85;;;7.72;;
32152;SDS011;18656;50.580;11.392;2023-11-19T09:23:05;7.05;;;5.38;;
32152;SDS011;18656;50.580;11.392;2023-11-19T09:25:34;1.63;;;1.52;;
32152;SDS011;18656;50.580;11.392;2023-11-19T09:28:04;3.97;;;1.73;;
32152;SDS011;18656;50.580;11.392;2023-11-19T09:30:31;9.35;;;2.92;;
32152;SDS011;18656;50.580;11.392;2023-11-19T09:33:00;10.82;;;2.28;;
32152;SDS011;18656;50.580;11.392;2023-11-19T09:35:28;6.88;;;1.65;;
32152;SDS011;18656;50.580;11.392;2023-11-19T09:37:55;4.25;;;2.50;;
32152;SDS011;18656;50.580;11.392;2023-11-19T09:40:23;8.73;;;1.52;;
32152;SDS011;18656;50.580;11.392;2023-11-19T09:42:50;9.07;;;2.03;;
32152;SDS011;18656;50.580;11.392;2023-11-19T09:45:17;7.65;;;1.70;;
32152;SDS011;18656;50.580;11.392;2023-11-19T09:47:47;7.90;;;1.83;;
32152;SDS011;18656;50.580;11.392;2023-11-19T09:50:19;7.32;;;1.98;;
32152;SDS011;18656;50.580;11.392;2023-11-19T09:52:47;5.40;;;1.23;;
32152;SDS011;18656;50.580;11.392;2023-11-19T09:55:14;3.97;;;1.42;;
32152;SDS011;18656;50.580;11.392;2023-11-19T09:57:42;3.20;;;1.15;;
32152;SDS011;18656;50.580;11.392;2023-11-19T10:00:10;5.32;;;1.60;;
32152;SDS011;18656;50.580;11.392;2023-11-19T10:02:39;3.58;;;1.42;;
32152;SDS011;18656;50.580;11.392;2023-11-19T10:05:07;4.65;;;1.35;;
32152;SDS011;18656;50.580;11.392;2023-11-19T10:07:34;5.05;;;1.25;;
32152;SDS011;18656;50.580;11.392;2023-11-19T10:10:02;3.83;;;0.82;;
32152;SDS011;18656;50.580;11.392;2023-11-19T10:12:30;4.20;;;1.15;;
32152;SDS011;18656;50.580;11.392;2023-11-19T10:14:58;4.32;;;0.80;;
32152;SDS011;18656;50.580;11.392;2023-11-19T10:17:28;4.70;;;1.33;;
32152;SDS011;18656;50.580;11.392;2023-11-19T10:19:56;5.85;;;1.30;;
32152;SDS011;18656;50.580;11.392;2023-11-19T10:22:23;3.22;;;1.10;;
32152;SDS011;18656;50.580;11.392;2023-11-19T10:24:51;3.30;;;1.10;;
32152;SDS011;18656;50.580;11.392;2023-11-19T10:27:23;2.78;;;0.95;;
32152;SDS011;18656;50.580;11.392;2023-11-19T10:29:52;4.40;;;1.10;;
32152;SDS011;18656;50.580;11.392;2023-11-19T10:32:19;4.75;;;0.88;;
32152;SDS011;18656;50.580;11.392;2023-11-19T10:34:56;2.25;;;0.75;;
32152;SDS011;18656;50.580;11.392;2023-11-19T10:37:32;2.78;;;0.80;;
32152;SDS011;18656;50.580;11.392;2023-11-19T10:40:02;5.68;;;1.00;;
32152;SDS011;18656;50.580;11.392;2023-11-19T10:42:31;3.42;;;0.63;;
32152;SDS011;18656;50.580;11.392;2023-11-19T10:44:58;5.32;;;0.95;;
32152;SDS011;18656;50.580;11.392;2023-11-19T10:47:26;4.35;;;0.82;;
32152;SDS011;18656;50.580;11.392;2023-11-19T10:49:57;3.70;;;1.10;;
32152;SDS011;18656;50.580;11.392;2023-11-19T10:52:25;1.63;;;0.90;;
32152;SDS011;18656;50.580;11.392;2023-11-19T10:54:54;3.63;;;0.70;;
32152;SDS011;18656;50.580;11.392;2023-11-19T10:57:23;4.90;;;0.90;;
32152;SDS011;18656;50.580;11.392;2023-11-19T10:59:53;2.20;;;0.68;;
32152;SDS011;18656;50.580;11.392;2023-11-19T11:02:23;4.05;;;1.20;;
32152;SDS011;18656;50.580;11.392;2023-11-19T11:04:51;4.85;;;1.30;;
32152;SDS011;18656;50.580;11.392;2023-11-19T11:07:20;3.10;;;0.93;;
32152;SDS011;18656;50.580;11.392;2023-11-19T11:10:05;2.08;;;0.90;;
32152;SDS011;18656;50.580;11.392;2023-11-19T11:12:37;4.32;;;0.98;;
32152;SDS011;18656;50.580;11.392;2023-11-19T11:15:06;3.58;;;0.82;;
32152;SDS011;18656;50.580;11.392;2023-11-19T11:17:34;4.90;;;2.28;;
32152;SDS011;18656;50.580;11.392;2023-11-19T11:20:03;2.70;;;1.00;;
32152;SDS011;18656;50.580;11.392;2023-11-19T11:22:32;4.22;;;1.10;;
32152;SDS011;18656;50.580;11.392;2023-11-19T11:25:11;4.80;;;0.93;;
32152;SDS011;18656;50.580;11.392;2023-11-19T11:27:58;6.63;;;1.10;;
32152;SDS011;18656;50.580;11.392;2023-11-19T11:30:35;3.17;;;1.30;;
32152;SDS011;18656;50.580;11.392;2023-11-19T11:33:10;2.63;;;1.30;;
32152;SDS011;18656;50.580;11.392;2023-11-19T11:38:28;7.03;;;1.30;;
32152;SDS011;18656;50.580;11.392;2023-11-19T11:43:50;7.30;;;1.60;;
32152;SDS011;18656;50.580;11.392;2023-11-19T11:49:02;7.10;;;1.40;;
32152;SDS011;18656;50.580;11.392;2023-11-19T11:59:19;6.28;;;1.50;;
32152;SDS011;18656;50.580;11.392;2023-11-19T12:01:57;4.65;;;1.65;;
32152;SDS011;18656;50.580;11.392;2023-11-19T12:04:28;4.57;;;1.67;;
32152;SDS011;18656;50.580;11.392;2023-11-19T12:09:41;7.93;;;2.13;;
32152;SDS011;18656;50.580;11.392;2023-11-19T12:12:17;5.65;;;1.73;;
32152;SDS011;18656;50.580;11.392;2023-11-19T12:20:00;9.63;;;1.98;;
32152;SDS011;18656;50.580;11.392;2023-11-19T12:22:27;11.93;;;1.77;;
32152;SDS011;18656;50.580;11.392;2023-11-19T12:24:54;6.78;;;1.70;;
32152;SDS011;18656;50.580;11.392;2023-11-19T12:27:22;6.28;;;1.30;;
32152;SDS011;18656;50.580;11.392;2023-11-19T12:29:50;4.07;;;1.55;;
32152;SDS011;18656;50.580;11.392;2023-11-19T12:32:17;5.40;;;1.33;;
32152;SDS011;18656;50.580;11.392;2023-11-19T12:34:45;3.78;;;1.42;;
32152;SDS011;18656;50.580;11.392;2023-11-19T12:37:15;6.47;;;1.65;;
32152;SDS011;18656;50.580;11.392;2023-11-19T12:39:43;9.00;;;1.80;;
32152;SDS011;18656;50.580;11.392;2023-11-19T12:42:10;5.07;;;1.50;;
32152;SDS011;18656;50.580;11.392;2023-11-19T12:44:39;8.95;;;1.50;;
32152;SDS011;18656;50.580;11.392;2023-11-19T12:47:06;7.57;;;2.25;;
32152;SDS011;18656;50.580;11.392;2023-11-19T12:49:37;6.40;;;1.42;;
32152;SDS011;18656;50.580;11.392;2023-11-19T12:52:11;9.05;;;1.30;;
32152;SDS011;18656;50.580;11.392;2023-11-19T12:54:39;6.93;;;1.73;;
32152;SDS011;18656;50.580;11.392;2023-11-19T12:57:06;8.00;;;1.33;;
32152;SDS011;18656;50.580;11.392;2023-11-19T12:59:34;5.43;;;1.85;;
32152;SDS011;18656;50.580;11.392;2023-11-19T13:02:01;4.60;;;0.95;;
32152;SDS011;18656;50.580;11.392;2023-11-19T13:04:32;4.50;;;1.30;;
32152;SDS011;18656;50.580;11.392;2023-11-19T13:07:00;5.13;;;1.15;;
32152;SDS011;18656;50.580;11.392;2023-11-19T13:09:31;4.18;;;1.30;;
32152;SDS011;18656;50.580;11.392;2023-11-19T13:11:59;7.90;;;1.10;;
32152;SDS011;18656;50.580;11.392;2023-11-19T13:14:36;5.95;;;1.42;;
32152;SDS011;18656;50.580;11.392;2023-11-19T13:17:04;9.93;;;1.83;;
32152;SDS011;18656;50.580;11.392;2023-11-19T13:19:32;6.32;;;1.55;;
32152;SDS011;18656;50.580;11.392;2023-11-19T13:21:59;9.90;;;1.92;;
32152;SDS011;18656;50.580;11.392;2023-11-19T13:24:26;6.47;;;1.45;;
32152;SDS011;18656;50.580;11.392;2023-11-19T13:26:54;9.00;;;1.48;;
32152;SDS011;18656;50.580;11.392;2023-11-19T13:29:22;7.55;;;1.35;;
32152;SDS011;18656;50.580;11.392;2023-11-19T13:31:49;5.10;;;1.30;;
32152;SDS011;18656;50.580;11.392;2023-11-19T13:34:16;7.28;;;1.73;;
32152;SDS011;18656;50.580;11.392;2023-11-19T13:36:43;8.93;;;2.53;;
32152;SDS011;18656;50.580;11.392;2023-11-19T13:39:11;10.13;;;1.90;;
32152;SDS011;18656;50.580;11.392;2023-11-19T13:41:38;13.60;;;5.75;;
32152;SDS011;18656;50.580;11.392;2023-11-19T13:44:06;5.93;;;1.73;;
32152;SDS011;18656;50.580;11.392;2023-11-19T13:46:33;6.82;;;1.88;;
32152;SDS011;18656;50.580;11.392;2023-11-19T13:49:00;8.10;;;2.50;;
32152;SDS011;18656;50.580;11.392;2023-11-19T13:51:31;6.55;;;1.92;;
32152;SDS011;18656;50.580;11.392;2023-11-19T13:53:59;6.03;;;1.60;;
32152;SDS011;18656;50.580;11.392;2023-11-19T13:56:26;6.45;;;1.75;;
32152;SDS011;18656;50.580;11.392;2023-11-19T13:58:54;7.13;;;2.45;;
32152;SDS011;18656;50.580;11.392;2023-11-19T14:01:21;8.27;;;2.38;;
32152;SDS011;18656;50.580;11.392;2023-11-19T14:03:51;7.15;;;1.63;;
32152;SDS011;18656;50.580;11.392;2023-11-19T14:06:19;12.75;;;2.45;;
32152;SDS011;18656;50.580;11.392;2023-11-19T14:08:47;10.88;;;2.70;;
32152;SDS011;18656;50.580;11.392;2023-11-19T14:11:14;9.23;;;2.10;;
32152;SDS011;18656;50.580;11.392;2023-11-19T14:13:42;8.77;;;2.42;;
32152;SDS011;18656;50.580;11.392;2023-11-19T14:16:09;11.65;;;3.92;;
32152;SDS011;18656;50.580;11.392;2023-11-19T14:18:39;7.93;;;1.70;;
32152;SDS011;18656;50.580;11.392;2023-11-19T14:21:06;9.40;;;1.88;;
32152;SDS011;18656;50.580;11.392;2023-11-19T14:23:33;8.25;;;2.00;;
32152;SDS011;18656;50.580;11.392;2023-11-19T14:26:00;6.40;;;1.85;;
32152;SDS011;18656;50.580;11.392;2023-11-19T14:28:29;8.55;;;2.25;;
32152;SDS011;18656;50.580;11.392;2023-11-19T14:30:57;7.90;;;1.83;;
32152;SDS011;18656;50.580;11.392;2023-11-19T14:33:24;9.25;;;3.80;;
32152;SDS011;18656;50.580;11.392;2023-11-19T14:35:52;11.60;;;2.63;;
32152;SDS011;18656;50.580;11.392;2023-11-19T14:38:19;10.88;;;1.92;;
32152;SDS011;18656;50.580;11.392;2023-11-19T14:40:46;11.65;;;2.10;;
32152;SDS011;18656;50.580;11.392;2023-11-19T14:43:14;10.90;;;2.15;;
32152;SDS011;18656;50.580;11.392;2023-11-19T14:45:41;10.82;;;1.85;;
32152;SDS011;18656;50.580;11.392;2023-11-19T14:50:44;11.30;;;2.03;;
32152;SDS011;18656;50.580;11.392;2023-11-19T14:53:11;10.00;;;1.77;;
32152;SDS011;18656;50.580;11.392;2023-11-19T14:55:38;12.23;;;1.90;;
32152;SDS011;18656;50.580;11.392;2023-11-19T14:58:05;8.15;;;1.63;;
32152;SDS011;18656;50.580;11.392;2023-11-19T15:00:38;14.32;;;3.08;;
32152;SDS011;18656;50.580;11.392;2023-11-19T15:03:05;13.98;;;2.35;;
32152;SDS011;18656;50.580;11.392;2023-11-19T15:05:35;11.95;;;3.47;;
32152;SDS011;18656;50.580;11.392;2023-11-19T15:08:02;12.80;;;3.20;;